Time;durP1;ratioP1;P1;durP2;ratioP2;P2;SDS_P1;SDS_P2;PMS_P1;PMS_P2;Temp;Humidity;BMP_temperature;BMP_pressure;BME280_temperature;BME280_humidity;BME280_pressure;Samples;Min_cycle;Max_cycle;Signal;HPM_P1;HPM_P2
2021/04/25 00:00:58;;;;;;;19.30;11.05;;;2.50;99.90;;;;;;4162037;28;20095;-81
2021/04/25 00:02:58;;;;;;;21.08;10.70;;;2.50;99.90;;;;;;4162178;28;20072;-81
2021/04/25 00:04:59;;;;;;;31.02;13.95;;;2.50;99.90;;;;;;4178959;28;20040;-81
2021/04/25 00:07:00;;;;;;;22.95;11.93;;;2.50;99.90;;;;;;4145529;28;20077;-81
2021/04/25 00:09:01;;;;;;;24.40;12.02;;;2.60;99.90;;;;;;4177833;28;20418;-79
2021/04/25 00:11:03;;;;;;;22.23;11.50;;;2.60;99.90;;;;;;4170264;28;20517;-80
2021/04/25 00:13:04;;;;;;;22.90;10.95;;;2.50;99.90;;;;;;4161318;28;20041;-81
2021/04/25 00:15:05;;;;;;;28.05;11.93;;;2.50;99.90;;;;;;4144545;28;20030;-79
2021/04/25 00:17:06;;;;;;;22.65;12.05;;;2.50;99.90;;;;;;4161389;28;20067;-79
2021/04/25 00:19:07;;;;;;;20.23;13.00;;;2.60;99.90;;;;;;4163458;28;20029;-81
2021/04/25 00:21:09;;;;;;;18.05;11.45;;;1.70;99.90;;;;;;4161810;28;20034;-81
2021/04/25 00:23:09;;;;;;;18.48;10.93;;;2.80;99.90;;;;;;4162990;28;20400;-82
2021/04/25 00:25:12;;;;;;;22.30;11.05;;;2.70;99.90;;;;;;4145504;28;20117;-82
2021/04/25 00:27:12;;;;;;;21.27;11.35;;;2.80;99.90;;;;;;4146331;28;20034;-82
2021/04/25 00:29:13;;;;;;;24.25;11.82;;;2.80;99.90;;;;;;4145917;28;20129;-82
2021/04/25 00:31:14;;;;;;;27.67;12.48;;;2.90;99.90;;;;;;4141145;28;20049;-82
2021/04/25 00:33:15;;;;;;;18.80;11.50;;;2.80;99.90;;;;;;4146748;28;20026;-82
2021/04/25 00:35:18;;;;;;;20.42;11.13;;;3.00;99.90;;;;;;4146904;28;20116;-81
2021/04/25 00:37:18;;;;;;;20.23;11.20;;;2.80;99.90;;;;;;4160044;28;20034;-82
2021/04/25 00:39:19;;;;;;;23.65;11.55;;;2.90;99.90;;;;;;4130409;28;20034;-82
2021/04/25 00:41:21;;;;;;;19.55;11.10;;;3.40;99.90;;;;;;4146779;28;20053;-82
2021/04/25 00:43:23;;;;;;;19.40;11.73;;;3.00;99.90;;;;;;4158567;28;20033;-81
2021/04/25 00:45:24;;;;;;;20.63;11.98;;;3.10;99.90;;;;;;4130689;28;20035;-82
2021/04/25 00:47:25;;;;;;;17.90;9.98;;;3.10;99.90;;;;;;4146514;28;20034;-82
2021/04/25 00:49:27;;;;;;;19.40;10.50;;;3.20;99.90;;;;;;4146652;28;20026;-79
2021/04/25 00:51:27;;;;;;;18.55;10.73;;;3.30;99.90;;;;;;4146697;28;20061;-80
2021/04/25 00:53:28;;;;;;;19.25;10.88;;;3.40;99.90;;;;;;4147428;28;20041;-80
2021/04/25 00:55:32;;;;;;;15.30;10.45;;;3.50;99.90;;;;;;4147867;28;20030;-82
2021/04/25 00:57:34;;;;;;;20.67;11.07;;;3.60;99.90;;;;;;4146429;28;20499;-82
2021/04/25 00:59:34;;;;;;;21.67;10.52;;;3.70;99.90;;;;;;4145028;28;20030;-81
2021/04/25 01:01:35;;;;;;;17.90;10.23;;;3.60;99.90;;;;;;4178955;28;20036;-82
2021/04/25 01:03:36;;;;;;;16.98;9.65;;;3.70;99.90;;;;;;4146572;28;20030;-82
2021/04/25 01:05:37;;;;;;;19.17;9.48;;;3.60;99.90;;;;;;4179403;28;20033;-82
2021/04/25 01:07:38;;;;;;;16.42;10.23;;;3.70;99.90;;;;;;4168825;28;20073;-81
2021/04/25 01:09:41;;;;;;;16.77;9.77;;;3.70;99.90;;;;;;4145987;28;20424;-81
2021/04/25 01:11:41;;;;;;;17.25;10.00;;;3.70;99.90;;;;;;4162367;28;20037;-80
2021/04/25 01:13:42;;;;;;;17.52;9.05;;;3.80;99.90;;;;;;4147485;28;20030;-81
2021/04/25 01:15:43;;;;;;;16.88;9.48;;;3.80;99.90;;;;;;4162393;28;20046;-81
2021/04/25 01:17:47;;;;;;;26.00;10.43;;;3.80;99.90;;;;;;4145566;28;20461;-81
2021/04/25 01:19:48;;;;;;;15.63;9.85;;;3.80;99.90;;;;;;4146161;28;20086;-81
2021/04/25 01:21:48;;;;;;;16.33;9.52;;;3.80;99.90;;;;;;4161262;28;20538;-80
2021/04/25 01:23:49;;;;;;;20.30;9.75;;;3.70;99.90;;;;;;4140184;28;20496;-81
2021/04/25 01:25:50;;;;;;;19.10;10.13;;;3.70;99.90;;;;;;4142782;28;20036;-81
2021/04/25 01:27:51;;;;;;;16.75;9.18;;;3.70;99.90;;;;;;4145488;28;20037;-81
2021/04/25 01:29:52;;;;;;;16.00;9.52;;;3.60;99.90;;;;;;4173671;28;20116;-83
2021/04/25 01:31:53;;;;;;;18.25;9.45;;;3.60;99.90;;;;;;4144947;28;20065;-77
2021/04/25 01:33:53;;;;;;;25.63;12.73;;;3.70;99.90;;;;;;4161774;28;20045;-81
2021/04/25 01:35:55;;;;;;;18.80;10.35;;;3.70;99.90;;;;;;4145933;28;20117;-82
2021/04/25 01:37:57;;;;;;;18.10;9.02;;;3.70;99.90;;;;;;4158952;28;20076;-82
2021/04/25 01:39:58;;;;;;;14.68;9.75;;;3.60;99.90;;;;;;4162335;28;20060;-81
2021/04/25 01:41:59;;;;;;;18.48;11.15;;;3.60;99.90;;;;;;4158975;28;20026;-81
2021/04/25 01:44:02;;;;;;;17.27;10.32;;;3.60;99.90;;;;;;4145509;28;20488;-82
2021/04/25 01:46:03;;;;;;;19.48;8.95;;;3.70;99.90;;;;;;4176987;28;20061;-81
2021/04/25 01:48:08;;;;;;;16.13;9.57;;;3.70;99.90;;;;;;4145511;28;20030;-81
2021/04/25 01:50:09;;;;;;;15.77;9.23;;;3.70;99.90;;;;;;4162060;28;20496;-81
2021/04/25 01:52:10;;;;;;;14.85;9.25;;;3.70;99.90;;;;;;4158966;28;20076;-81
2021/04/25 01:54:11;;;;;;;18.40;9.52;;;3.70;99.90;;;;;;4161437;28;20045;-82
2021/04/25 01:56:12;;;;;;;15.48;8.82;;;3.80;99.90;;;;;;4160816;28;20499;-81
2021/04/25 01:58:13;;;;;;;16.77;9.95;;;3.80;99.90;;;;;;4148615;28;20108;-80
2021/04/25 02:00:23;;;;;;;12.85;8.43;;;3.90;99.90;;;;;;4174011;28;20029;-81
2021/04/25 02:02:24;;;;;;;15.60;9.55;;;3.90;99.90;;;;;;4161637;28;20060;-81
2021/04/25 02:04:25;;;;;;;12.25;8.65;;;4.00;99.90;;;;;;4159017;28;20080;-79
2021/04/25 02:06:26;;;;;;;16.52;9.50;;;4.10;99.90;;;;;;4143445;28;20029;-81
2021/04/25 02:08:27;;;;;;;15.27;8.68;;;4.10;99.90;;;;;;4149701;28;20049;-81
2021/04/25 02:10:29;;;;;;;15.00;8.38;;;4.20;99.90;;;;;;4159883;28;20092;-82
2021/04/25 02:12:30;;;;;;;16.92;8.10;;;4.20;99.90;;;;;;4160829;28;20025;-81
2021/04/25 02:14:31;;;;;;;11.30;8.15;;;4.30;99.90;;;;;;4176195;28;20029;-81
2021/04/25 02:16:35;;;;;;;13.50;7.90;;;4.30;99.90;;;;;;4140545;28;20053;-82
2021/04/25 02:18:36;;;;;;;14.60;8.20;;;;;;;;;;4156132;28;20659;-82
2021/04/25 02:20:36;;;;;;;15.38;7.90;;;4.40;99.90;;;;;;4160909;28;20068;-81
2021/04/25 02:22:37;;;;;;;15.30;7.82;;;4.30;99.90;;;;;;4155583;28;20120;-82
2021/04/25 02:24:38;;;;;;;20.83;9.85;;;4.30;99.90;;;;;;4176432;28;20036;-81
2021/04/25 02:26:39;;;;;;;17.08;9.25;;;4.40;99.90;;;;;;4161740;28;20025;-81
2021/04/25 02:28:40;;;;;;;13.23;7.72;;;4.40;99.90;;;;;;4160250;28;20458;-81
2021/04/25 02:30:42;;;;;;;17.35;9.80;;;4.40;99.90;;;;;;4161310;28;20603;-79
2021/04/25 02:32:42;;;;;;;10.68;7.35;;;4.40;99.90;;;;;;4150407;28;20026;-82
2021/04/25 02:34:43;;;;;;;17.50;8.50;;;4.40;99.90;;;;;;4172640;28;20329;-81
2021/04/25 02:36:44;;;;;;;18.10;8.38;;;4.40;99.90;;;;;;4161375;28;20075;-81
2021/04/25 02:38:45;;;;;;;14.35;8.02;;;4.40;99.90;;;;;;4159336;28;20040;-82
2021/04/25 02:40:45;;;;;;;12.32;8.38;;;4.40;99.90;;;;;;4152071;28;20100;-81
2021/04/25 02:42:47;;;;;;;14.75;8.75;;;4.40;99.90;;;;;;4144909;28;20038;-82
2021/04/25 02:44:47;;;;;;;15.38;8.88;;;4.40;99.90;;;;;;4170639;28;21569;-80
2021/04/25 02:46:48;;;;;;;16.55;8.73;;;4.40;99.90;;;;;;4160987;28;20072;-82
2021/04/25 02:48:49;;;;;;;16.55;7.65;;;4.40;99.90;;;;;;4161259;28;20021;-82
2021/04/25 02:50:50;;;;;;;13.85;7.88;;;4.50;99.90;;;;;;4177580;28;20060;-81
2021/04/25 02:52:51;;;;;;;12.35;6.65;;;;;;;;;;4177662;28;20025;-81
2021/04/25 02:54:53;;;;;;;15.07;8.10;;;4.50;99.90;;;;;;4161104;28;20491;-82
2021/04/25 02:56:54;;;;;;;13.18;7.57;;;4.50;99.90;;;;;;4161289;28;20511;-82
2021/04/25 02:58:56;;;;;;;11.77;7.72;;;4.50;99.90;;;;;;4177728;28;20083;-81
2021/04/25 03:00:57;;;;;;;13.55;7.45;;;4.60;99.90;;;;;;4177960;28;20025;-81
2021/04/25 03:02:59;;;;;;;15.50;7.82;;;4.60;99.90;;;;;;4161348;28;20365;-81
2021/04/25 03:04:59;;;;;;;11.00;8.05;;;4.60;99.90;;;;;;4147789;28;20485;-81
2021/04/25 03:07:00;;;;;;;11.60;7.85;;;4.60;99.90;;;;;;4160970;28;20071;-81
2021/04/25 03:09:01;;;;;;;17.13;8.95;;;4.60;99.90;;;;;;4178090;28;20519;-79
2021/04/25 03:11:02;;;;;;;12.48;7.35;;;4.60;99.90;;;;;;4164324;28;20044;-81
2021/04/25 03:13:03;;;;;;;16.05;7.68;;;4.60;99.90;;;;;;4164401;28;20026;-81
2021/04/25 03:15:06;;;;;;;17.38;8.63;;;4.70;99.90;;;;;;4164968;28;20037;-80
2021/04/25 03:17:07;;;;;;;;;;;4.60;99.90;;;;;;4147624;28;20042;-81
2021/04/25 03:19:08;;;;;;;14.07;6.55;;;4.60;99.90;;;;;;4174369;28;20272;-81
2021/04/25 03:21:08;;;;;;;18.30;7.93;;;4.60;99.90;;;;;;4159058;28;20046;-81
2021/04/25 03:23:09;;;;;;;11.95;6.90;;;4.70;99.90;;;;;;4160794;28;20036;-82
2021/04/25 03:25:12;;;;;;;11.63;7.05;;;4.70;99.90;;;;;;4164443;28;20030;-82
2021/04/25 03:27:13;;;;;;;16.40;6.93;;;4.70;99.90;;;;;;4180973;28;20087;-82
2021/04/25 03:29:13;;;;;;;11.75;6.30;;;4.70;99.90;;;;;;4145552;28;20040;-81
2021/04/25 03:31:14;;;;;;;12.10;6.63;;;4.80;99.90;;;;;;4180703;28;20040;-81
2021/04/25 03:33:15;;;;;;;13.02;7.25;;;4.80;99.90;;;;;;4147677;28;20537;-80
2021/04/25 03:35:17;;;;;;;11.18;7.35;;;4.80;99.90;;;;;;4164305;28;20060;-81
2021/04/25 03:37:18;;;;;;;13.52;7.40;;;4.80;99.90;;;;;;4161686;28;20026;-79
2021/04/25 03:39:19;;;;;;;11.68;7.28;;;4.80;99.90;;;;;;4164393;28;20040;-81
2021/04/25 03:41:20;;;;;;;13.32;7.38;;;4.70;99.90;;;;;;4131644;28;20409;-81
2021/04/25 03:43:21;;;;;;;11.90;7.03;;;4.70;99.90;;;;;;4150354;28;20037;-80
2021/04/25 03:45:23;;;;;;;18.27;7.68;;;4.70;99.90;;;;;;4171139;28;20091;-80
2021/04/25 03:47:25;;;;;;;13.15;7.53;;;4.80;99.90;;;;;;4162773;28;20029;-80
2021/04/25 03:49:27;;;;;;;11.95;7.15;;;4.80;99.90;;;;;;4163702;28;20061;-81
2021/04/25 03:51:27;;;;;;;16.98;7.22;;;4.80;99.90;;;;;;4179796;28;20128;-81
2021/04/25 03:53:28;;;;;;;11.55;7.13;;;4.80;99.90;;;;;;4151636;28;20073;-81
2021/04/25 03:55:29;;;;;;;14.38;7.00;;;4.80;99.90;;;;;;4147062;28;20052;-81
2021/04/25 03:57:30;;;;;;;16.08;7.65;;;4.80;99.90;;;;;;4158824;28;20034;-81
2021/04/25 03:59:31;;;;;;;10.15;6.38;;;4.80;99.90;;;;;;4157155;28;20036;-80
2021/04/25 04:01:32;;;;;;;11.13;7.22;;;4.80;99.90;;;;;;4159521;28;20081;-81
2021/04/25 04:03:33;;;;;;;14.52;7.22;;;4.80;99.90;;;;;;4157629;28;20056;-81
2021/04/25 04:05:34;;;;;;;16.92;9.63;;;4.80;99.90;;;;;;4165411;28;20107;-80
2021/04/25 04:07:34;;;;;;;14.18;7.43;;;4.90;99.90;;;;;;4175082;28;20057;-81
2021/04/25 04:09:35;;;;;;;11.82;7.03;;;4.90;99.90;;;;;;4160696;28;20516;-81
2021/04/25 04:11:36;;;;;;;8.85;5.78;;;4.90;99.90;;;;;;4178905;28;20037;-81
2021/04/25 04:13:37;;;;;;;13.60;6.50;;;4.90;99.90;;;;;;4162354;28;20041;-81
2021/04/25 04:15:37;;;;;;;17.75;7.82;;;4.90;99.90;;;;;;4162309;28;20034;-80
2021/04/25 04:17:38;;;;;;;11.13;6.75;;;5.00;99.90;;;;;;4158849;28;20029;-81
2021/04/25 04:19:40;;;;;;;9.55;6.70;;;5.00;99.90;;;;;;4146148;28;20116;-81
2021/04/25 04:21:41;;;;;;;17.55;7.10;;;5.00;99.90;;;;;;4157590;28;20536;-80
2021/04/25 04:23:41;;;;;;;11.88;8.07;;;5.00;99.90;;;;;;4164777;28;20040;-81
2021/04/25 04:25:43;;;;;;;13.77;7.50;;;5.00;99.90;;;;;;4179792;28;20412;-81
2021/04/25 04:27:44;;;;;;;12.25;6.72;;;4.90;99.90;;;;;;4173638;28;20095;-81
2021/04/25 04:29:45;;;;;;;12.18;6.78;;;5.00;99.90;;;;;;4163634;28;20033;-81
2021/04/25 04:31:46;;;;;;;11.75;6.53;;;5.00;99.90;;;;;;4163490;28;20042;-81
2021/04/25 04:33:47;;;;;;;11.63;6.10;;;5.10;99.90;;;;;;4163331;28;20049;-82
2021/04/25 04:35:48;;;;;;;12.77;6.75;;;5.10;99.90;;;;;;4176642;28;20076;-81
2021/04/25 04:37:48;;;;;;;13.57;6.47;;;5.10;99.90;;;;;;4163077;28;20041;-80
2021/04/25 04:39:49;;;;;;;13.82;6.22;;;5.10;99.90;;;;;;4162945;28;20423;-81
2021/04/25 04:41:51;;;;;;;14.77;6.45;;;5.10;99.90;;;;;;4162399;28;20037;-81
2021/04/25 04:43:53;;;;;;;12.13;6.22;;;5.10;99.90;;;;;;4163326;28;20110;-81
2021/04/25 04:45:54;;;;;;;11.35;4.90;;;5.20;99.90;;;;;;4154239;28;20034;-80
2021/04/25 04:47:55;;;;;;;12.38;5.85;;;5.20;99.90;;;;;;4146797;28;20660;-82
2021/04/25 04:49:55;;;;;;;9.80;5.32;;;5.20;99.90;;;;;;4163260;28;20030;-82
2021/04/25 04:51:57;;;;;;;10.07;5.20;;;5.20;99.90;;;;;;4152546;28;20065;-83
2021/04/25 04:53:57;;;;;;;9.30;5.65;;;5.20;99.90;;;;;;4154069;28;20042;-82
2021/04/25 04:55:59;;;;;;;11.23;4.82;;;5.20;99.90;;;;;;4154266;28;20038;-82
2021/04/25 04:58:01;;;;;;;7.40;4.70;;;5.20;99.90;;;;;;4171624;28;20060;-82
2021/04/25 05:00:04;;;;;;;9.35;5.40;;;5.20;99.90;;;;;;4180388;28;20146;-81
2021/04/25 05:02:05;;;;;;;18.48;5.10;;;5.30;99.90;;;;;;4167051;28;20130;-82
2021/04/25 05:04:06;;;;;;;10.88;4.60;;;5.30;99.90;;;;;;4162766;28;20029;-81
2021/04/25 05:06:07;;;;;;;17.35;5.75;;;5.30;99.90;;;;;;4162653;28;20033;-81
2021/04/25 05:08:08;;;;;;;11.75;4.68;;;5.30;99.90;;;;;;4163099;28;20049;-81
2021/04/25 05:10:09;;;;;;;7.78;4.78;;;5.30;99.90;;;;;;4170130;28;20052;-80
2021/04/25 05:12:10;;;;;;;12.95;4.72;;;5.40;99.90;;;;;;4146626;28;20037;-80
2021/04/25 05:14:11;;;;;;;10.23;4.63;;;5.40;99.90;;;;;;4148889;28;20049;-83
2021/04/25 05:16:12;;;;;;;17.80;4.93;;;5.40;99.90;;;;;;4162544;28;20030;-81
2021/04/25 05:18:12;;;;;;;7.88;4.20;;;5.40;99.90;;;;;;4135834;28;20078;-81
2021/04/25 05:20:13;;;;;;;14.55;4.95;;;5.40;99.90;;;;;;4135550;28;20106;-82
2021/04/25 05:22:14;;;;;;;12.75;4.50;;;5.40;99.90;;;;;;4145867;28;20034;-82
2021/04/25 05:24:15;;;;;;;11.77;5.30;;;5.50;99.90;;;;;;4177843;28;20048;-83
2021/04/25 05:26:16;;;;;;;9.15;5.13;;;5.50;99.90;;;;;;4145621;28;20029;-82
2021/04/25 05:28:16;;;;;;;11.68;4.85;;;5.50;99.90;;;;;;4139452;28;20026;-81
2021/04/25 05:30:18;;;;;;;20.23;5.35;;;5.60;99.90;;;;;;4147718;28;20041;-82
2021/04/25 05:32:20;;;;;;;10.88;5.88;;;5.60;99.90;;;;;;4162589;28;20030;-82
2021/04/25 05:34:21;;;;;;;9.73;4.68;;;5.60;99.90;;;;;;4165978;28;20045;-79
2021/04/25 05:36:22;;;;;;;8.70;4.07;;;5.60;99.90;;;;;;4129637;28;20042;-81
2021/04/25 05:38:24;;;;;;;7.75;4.15;;;5.30;99.90;;;;;;4132995;28;20038;-79
2021/04/25 05:40:26;;;;;;;7.88;4.18;;;5.90;99.90;;;;;;4134356;28;20034;-83
2021/04/25 05:42:26;;;;;;;9.13;4.47;;;5.90;99.90;;;;;;4165924;28;20443;-82
2021/04/25 05:44:28;;;;;;;10.23;3.97;;;5.80;99.90;;;;;;4145190;28;20041;-82
2021/04/25 05:46:29;;;;;;;11.65;4.85;;;5.90;99.90;;;;;;4172972;28;20036;-82
2021/04/25 05:48:30;;;;;;;9.57;4.30;;;5.80;99.90;;;;;;4164712;28;20489;-82
2021/04/25 05:50:31;;;;;;;9.23;4.40;;;5.90;99.90;;;;;;4166091;28;20030;-82
2021/04/25 05:52:32;;;;;;;11.27;4.80;;;5.90;99.90;;;;;;4146102;28;20072;-82
2021/04/25 05:54:33;;;;;;;14.93;4.70;;;5.90;99.90;;;;;;4146061;28;20081;-82
2021/04/25 05:56:35;;;;;;;11.88;5.22;;;6.00;99.90;;;;;;4143990;28;20037;-82
2021/04/25 05:58:36;;;;;;;14.05;4.82;;;6.00;99.90;;;;;;4161683;28;20053;-82
2021/04/25 06:00:39;;;;;;;10.18;4.88;;;6.00;99.90;;;;;;4162128;28;20123;-81
2021/04/25 06:02:39;;;;;;;6.80;4.35;;;6.10;99.90;;;;;;4160729;28;20045;-81
2021/04/25 06:04:41;;;;;;;13.73;5.25;;;6.10;99.90;;;;;;4158924;28;20594;-82
2021/04/25 06:06:43;;;;;;;14.02;4.93;;;6.10;99.90;;;;;;4154086;28;20038;-82
2021/04/25 06:08:44;;;;;;;13.18;5.35;;;6.20;99.90;;;;;;4163150;28;20029;-81
2021/04/25 06:10:44;;;;;;;12.00;5.22;;;6.20;99.90;;;;;;4161916;28;20044;-81
2021/04/25 06:12:50;;;;;;;11.55;4.95;;;6.20;99.90;;;;;;4177995;28;20036;-81
2021/04/25 06:14:51;;;;;;;11.65;5.32;;;6.30;99.90;;;;;;4177575;28;20041;-81
2021/04/25 06:16:52;;;;;;;8.32;4.45;;;6.30;99.90;;;;;;4178265;28;20029;-82
2021/04/25 06:18:53;;;;;;;13.75;5.43;;;6.40;99.90;;;;;;4145436;28;20057;-82
2021/04/25 06:20:54;;;;;;;8.52;5.60;;;6.40;99.90;;;;;;4178417;28;20033;-82
2021/04/25 06:22:56;;;;;;;9.27;4.85;;;6.50;99.90;;;;;;4153574;28;20041;-83
2021/04/25 06:24:57;;;;;;;18.10;4.50;;;6.50;99.90;;;;;;4128201;28;20060;-81
2021/04/25 06:26:58;;;;;;;10.77;4.65;;;6.50;99.90;;;;;;4146842;28;20030;-82
2021/04/25 06:28:59;;;;;;;14.13;4.60;;;6.50;99.90;;;;;;4145406;28;20050;-81
2021/04/25 06:31:00;;;;;;;9.13;4.68;;;6.60;99.90;;;;;;4176973;28;20041;-81
2021/04/25 06:33:01;;;;;;;11.35;5.03;;;6.60;99.90;;;;;;4160990;28;21547;-80
2021/04/25 06:35:04;;;;;;;8.82;5.25;;;6.60;99.90;;;;;;4147081;28;20026;-80
2021/04/25 06:37:04;;;;;;;11.80;4.65;;;6.60;99.90;;;;;;4157288;28;20037;-81
2021/04/25 06:39:05;;;;;;;12.52;5.30;;;6.50;99.90;;;;;;4162445;28;20040;-82
2021/04/25 06:41:06;;;;;;;9.98;4.43;;;6.50;99.90;;;;;;4162766;28;20562;-83
2021/04/25 06:43:07;;;;;;;7.13;4.38;;;6.60;99.90;;;;;;4162422;28;20037;-81
2021/04/25 06:45:18;;;;;;;10.63;4.20;;;6.70;99.90;;;;;;4160622;28;20033;-82
2021/04/25 06:47:19;;;;;;;10.60;4.78;;;6.70;99.90;;;;;;4154235;28;20029;-82
2021/04/25 06:49:21;;;;;;;12.07;5.32;;;6.70;99.90;;;;;;4160359;28;20037;-82
2021/04/25 06:51:21;;;;;;;9.25;4.00;;;6.80;99.90;;;;;;4156243;28;20045;-82
2021/04/25 06:53:22;;;;;;;10.77;4.07;;;6.80;99.90;;;;;;4157540;28;20370;-81
2021/04/25 06:55:25;;;;;;;10.20;3.97;;;6.80;99.90;;;;;;4175915;28;20128;-81
2021/04/25 06:57:27;;;;;;;10.65;4.15;;;6.90;99.90;;;;;;4166495;28;20037;-81
2021/04/25 06:59:28;;;;;;;9.27;4.35;;;6.80;99.90;;;;;;4137297;28;20030;-82
2021/04/25 07:01:29;;;;;;;10.13;4.25;;;6.90;99.90;;;;;;4176320;28;20043;-82
2021/04/25 07:03:30;;;;;;;11.52;5.05;;;6.90;99.90;;;;;;4143785;28;20034;-81
2021/04/25 07:05:31;;;;;;;8.90;4.18;;;7.00;99.90;;;;;;4144203;28;20500;-80
2021/04/25 07:07:32;;;;;;;7.97;4.15;;;7.10;99.90;;;;;;4170471;28;20041;-81
2021/04/25 07:09:33;;;;;;;11.10;4.10;;;7.20;99.90;;;;;;4154369;28;20039;-81
2021/04/25 07:11:33;;;;;;;10.07;3.95;;;7.20;99.90;;;;;;4158973;28;20376;-80
2021/04/25 07:13:34;;;;;;;9.55;3.92;;;7.30;99.90;;;;;;4157380;28;20099;-81
2021/04/25 07:15:35;;;;;;;12.38;3.83;;;7.30;99.90;;;;;;4175797;28;20162;-80
2021/04/25 07:17:36;;;;;;;8.32;3.30;;;7.40;99.90;;;;;;4175183;28;20044;-81
2021/04/25 07:19:37;;;;;;;11.02;4.60;;;7.50;99.90;;;;;;4168486;28;20037;-81
2021/04/25 07:21:37;;;;;;;12.52;3.58;;;7.50;99.90;;;;;;4158874;28;20029;-80
2021/04/25 07:23:38;;;;;;;10.65;4.10;;;7.50;99.90;;;;;;4155858;28;20037;-81
2021/04/25 07:25:39;;;;;;;6.93;3.78;;;7.60;99.90;;;;;;4138853;28;20056;-80
2021/04/25 07:27:40;;;;;;;8.10;3.70;;;7.60;99.90;;;;;;4160764;28;20030;-80
2021/04/25 07:29:41;;;;;;;9.88;3.20;;;7.60;99.90;;;;;;4160562;28;20040;-77
2021/04/25 07:31:42;;;;;;;8.40;3.33;;;7.80;99.90;;;;;;4161318;28;20037;-81
2021/04/25 07:33:43;;;;;;;5.57;3.42;;;7.80;99.90;;;;;;4168202;28;20112;-81
2021/04/25 07:35:44;;;;;;;7.72;3.67;;;7.70;99.90;;;;;;4144516;28;20060;-80
2021/04/25 07:37:47;;;;;;;9.07;3.17;;;7.80;99.90;;;;;;4160082;28;20092;-78
2021/04/25 07:39:47;;;;;;;13.57;3.83;;;7.80;99.90;;;;;;4175532;28;20025;-80
2021/04/25 07:41:48;;;;;;;10.05;3.72;;;7.90;99.90;;;;;;4158396;28;20038;-80
2021/04/25 07:43:49;;;;;;;8.35;3.20;;;7.90;99.90;;;;;;4161943;28;20120;-81
2021/04/25 07:45:50;;;;;;;9.27;3.78;;;8.10;99.90;;;;;;4157468;28;20197;-80
2021/04/25 07:47:51;;;;;;;11.23;3.70;;;8.20;99.90;;;;;;4158869;28;20041;-80
2021/04/25 07:49:51;;;;;;;8.35;3.63;;;8.20;99.90;;;;;;4159196;28;20034;-81
2021/04/25 07:51:52;;;;;;;4.43;3.28;;;8.10;99.90;;;;;;4160025;28;20046;-82
2021/04/25 07:53:55;;;;;;;7.65;3.50;;;8.20;99.90;;;;;;4144293;28;20084;-83
2021/04/25 07:55:56;;;;;;;13.37;3.33;;;8.20;99.90;;;;;;4154598;28;20034;-82
2021/04/25 07:57:57;;;;;;;10.05;4.00;;;8.10;99.90;;;;;;4151688;28;20285;-81
2021/04/25 07:59:57;;;;;;;10.77;3.03;;;7.90;99.90;;;;;;4162700;28;20539;-82
2021/04/25 08:01:59;;;;;;;8.55;3.75;;;8.00;99.90;;;;;;4148741;28;20045;-81
2021/04/25 08:04:00;;;;;;;10.07;3.15;;;8.20;99.90;;;;;;4147726;28;20037;-83
2021/04/25 08:06:03;;;;;;;10.55;3.85;;;8.50;99.90;;;;;;4143955;28;20060;-81
2021/04/25 08:08:04;;;;;;;11.93;4.40;;;8.60;99.90;;;;;;4178304;28;20041;-81
2021/04/25 08:10:08;;;;;;;13.57;3.78;;;8.60;99.90;;;;;;4162638;28;20041;-82
2021/04/25 08:12:09;;;;;;;13.32;4.15;;;8.60;99.90;;;;;;4162420;28;20619;-82
2021/04/25 08:14:10;;;;;;;12.25;3.92;;;8.60;99.90;;;;;;4178914;28;20681;-82
2021/04/25 08:16:11;;;;;;;8.25;3.63;;;8.60;99.90;;;;;;4147972;28;20133;-82
2021/04/25 08:18:12;;;;;;;9.85;4.18;;;8.50;99.90;;;;;;4179275;28;20033;-82
2021/04/25 08:20:13;;;;;;;13.60;4.03;;;8.50;99.90;;;;;;4146205;28;20092;-81
2021/04/25 08:22:14;;;;;;;7.57;3.45;;;8.10;99.90;;;;;;4179281;28;20044;-82
2021/04/25 08:24:15;;;;;;;10.60;3.40;;;8.50;99.90;;;;;;4147307;28;20049;-82
2021/04/25 08:26:16;;;;;;;7.13;3.53;;;8.80;99.90;;;;;;4173775;28;20033;-82
2021/04/25 08:28:18;;;;;;;11.63;4.53;;;8.80;99.90;;;;;;4146945;28;20034;-81
2021/04/25 08:30:20;;;;;;;5.70;2.97;;;8.90;99.90;;;;;;4146459;28;20040;-82
2021/04/25 08:32:21;;;;;;;11.45;3.00;;;9.00;99.90;;;;;;4163671;28;20748;-78
2021/04/25 08:34:22;;;;;;;9.20;3.22;;;9.40;99.90;;;;;;4140062;28;20046;-80
2021/04/25 08:36:22;;;;;;;9.98;4.65;;;9.50;99.90;;;;;;4143503;28;20037;-80
2021/04/25 08:38:23;;;;;;;10.20;3.65;;;9.50;99.90;;;;;;4163585;28;20036;-81
2021/04/25 08:40:24;;;;;;;8.15;3.30;;;9.60;99.90;;;;;;4177140;28;20124;-81
2021/04/25 08:42:25;;;;;;;9.02;3.33;;;9.40;99.90;;;;;;4119710;28;20045;-80
2021/04/25 08:44:26;;;;;;;6.35;3.30;;;9.30;99.90;;;;;;4133259;28;20125;-82
2021/04/25 08:46:30;;;;;;;15.32;8.02;;;9.50;99.90;;;;;;4157228;28;20124;-82
2021/04/25 08:48:32;;;;;;;13.43;5.32;;;9.50;99.90;;;;;;4179333;28;20063;-80
2021/04/25 08:50:33;;;;;;;11.85;6.07;;;9.60;99.90;;;;;;4162572;28;20057;-82
2021/04/25 08:52:35;;;;;;;9.75;3.72;;;9.70;99.90;;;;;;4128724;28;20077;-83
2021/04/25 08:54:36;;;;;;;7.68;3.47;;;9.90;99.90;;;;;;4177898;28;20033;-81
2021/04/25 08:56:37;;;;;;;13.73;3.30;;;10.00;99.90;;;;;;4144135;28;20026;-81
2021/04/25 08:58:38;;;;;;;17.75;3.85;;;10.10;99.90;;;;;;4146823;28;20481;-81
2021/04/25 09:00:40;;;;;;;6.10;2.75;;;10.20;99.90;;;;;;4180087;28;20033;-81
2021/04/25 09:02:41;;;;;;;5.60;2.78;;;9.90;99.90;;;;;;4163714;28;20045;-78
2021/04/25 09:04:42;;;;;;;16.48;4.15;;;10.00;99.90;;;;;;4143579;28;20030;-80
2021/04/25 09:07:05;;;;;;;7.60;3.35;;;9.90;99.90;;;;;;4178623;28;20063;-79
2021/04/25 09:09:08;;;;;;;8.63;3.55;;;10.10;99.90;;;;;;4162872;28;20037;-80
2021/04/25 09:11:29;;;;;;;19.17;6.07;;;10.20;99.90;;;;;;4161875;28;20113;-79
2021/04/25 09:13:29;;;;;;;8.15;3.10;;;10.10;99.90;;;;;;4171451;28;20128;-79
2021/04/25 09:15:34;;;;;;;14.43;7.45;;;10.40;99.90;;;;;;4179242;28;20037;-79
2021/04/25 09:17:55;;;;;;;7.75;3.55;;;10.50;99.90;;;;;;4176308;28;20126;-78
2021/04/25 09:20:00;;;;;;;9.63;3.28;;;10.80;99.90;;;;;;4159698;28;20040;-79
2021/04/25 09:22:02;;;;;;;12.98;5.07;;;10.70;99.90;;;;;;4179298;28;20037;-78
2021/04/25 09:24:27;;;;;;;10.02;3.67;;;10.70;99.90;;;;;;4162369;28;20029;-79
2021/04/25 09:26:41;;;;;;;4.90;2.67;;;10.90;99.90;;;;;;4143776;28;20397;-79
2021/04/25 09:29:00;;;;;;;6.28;3.08;;;11.10;99.90;;;;;;4162525;28;20039;-79
2021/04/25 09:31:09;;;;;;;12.95;3.95;;;10.90;99.90;;;;;;4156630;28;20087;-78
2021/04/25 09:33:10;;;;;;;10.95;4.93;;;10.70;99.90;;;;;;4152740;28;20457;-80
2021/04/25 09:35:22;;;;;;;11.85;3.40;;;11.10;99.90;;;;;;4130299;28;20176;-79
2021/04/25 09:37:24;;;;;;;7.20;2.92;;;11.20;99.90;;;;;;4161643;28;20081;-80
2021/04/25 09:39:24;;;;;;;6.63;3.58;;;11.40;99.90;;;;;;4170054;28;20029;-79
2021/04/25 09:41:33;;;;;;;9.20;3.22;;;11.30;99.90;;;;;;4150861;28;20041;-79
2021/04/25 09:43:40;;;;;;;11.57;3.78;;;11.10;99.90;;;;;;4145545;28;20030;-79
2021/04/25 09:45:54;;;;;;;9.80;4.53;;;11.00;99.90;;;;;;4143283;28;20116;-78
2021/04/25 09:47:55;;;;;;;;;;;10.70;99.90;;;;;;4162198;28;20048;-81
2021/04/25 09:49:56;;;;;;;7.80;3.15;;;10.60;99.90;;;;;;4149432;28;19913;-79
2021/04/25 09:51:57;;;;;;;7.60;3.05;;;10.40;99.90;;;;;;4156476;28;20491;-80
2021/04/25 09:54:01;;;;;;;9.98;3.50;;;10.60;99.90;;;;;;4158550;28;20072;-80
2021/04/25 09:56:03;;;;;;;9.15;3.58;;;10.80;99.90;;;;;;4158637;28;20033;-80
2021/04/25 09:58:11;;;;;;;7.18;3.17;;;10.80;99.90;;;;;;4168088;28;20017;-80
2021/04/25 10:00:13;;;;;;;8.80;3.40;;;10.90;99.90;;;;;;4150031;28;20049;-79
2021/04/25 10:02:14;;;;;;;12.20;3.83;;;10.90;99.90;;;;;;4139829;28;20573;-80
2021/04/25 10:04:37;;;;;;;7.68;3.70;;;10.90;99.90;;;;;;4161245;28;20049;-80
2021/04/25 10:06:55;;;;;;;8.50;3.67;;;11.10;99.90;;;;;;4161352;28;20108;-80
2021/04/25 10:08:56;;;;;;;10.63;3.20;;;11.60;99.90;;;;;;4170347;28;20315;-79
2021/04/25 10:10:57;;;;;;;8.50;3.63;;;11.40;99.90;;;;;;4168810;28;20041;-80
2021/04/25 10:13:00;;;;;;;8.07;3.85;;;11.20;99.90;;;;;;4150931;28;20030;-80
2021/04/25 10:15:00;;;;;;;8.73;3.03;;;11.20;99.90;;;;;;4134506;28;20134;-78
2021/04/25 10:17:03;;;;;;;5.22;3.17;;;11.10;99.90;;;;;;4131983;28;21725;-79
2021/04/25 10:19:04;;;;;;;11.33;3.20;;;11.20;99.90;;;;;;4155546;28;20033;-80
2021/04/25 10:21:05;;;;;;;7.35;3.75;;;11.50;99.90;;;;;;4171985;28;20037;-80
2021/04/25 10:23:07;;;;;;;7.15;3.08;;;11.70;99.90;;;;;;4154975;28;20485;-79
2021/04/25 10:25:30;;;;;;;5.57;2.63;;;12.00;99.90;;;;;;4157928;28;20022;-78
2021/04/25 10:27:33;;;;;;;7.70;3.03;;;12.10;99.90;;;;;;4151097;28;20034;-79
2021/04/25 10:30:08;;;;;;;6.15;2.88;;;12.10;99.90;;;;;;4152282;28;20041;-78
2021/04/25 10:32:10;;;;;;;5.90;3.28;;;11.80;99.90;;;;;;4094437;28;20037;-78
2021/04/25 10:34:21;;;;;;;9.15;3.65;;;11.60;99.90;;;;;;4143437;28;20042;-78
2021/04/25 10:36:22;;;;;;;6.03;2.88;;;11.40;99.90;;;;;;4161897;28;20042;-78